createdAt,value
2023-05-04T00:02:31.612Z,100.00
2023-05-04T00:05:44.357Z,100.00
2023-05-04T00:08:56.497Z,100.00
2023-05-04T00:12:09.117Z,100.00
2023-05-04T00:15:21.083Z,100.00
2023-05-04T00:18:33.218Z,100.00
2023-05-04T00:21:45.326Z,100.00
2023-05-04T00:24:57.543Z,100.00
2023-05-04T00:28:09.938Z,100.00
2023-05-04T00:31:22.889Z,100.00
2023-05-04T00:34:35.704Z,100.00
2023-05-04T00:37:47.817Z,100.00
2023-05-04T00:41:00.308Z,100.00
2023-05-04T00:44:14.547Z,100.00
2023-05-04T00:47:27.446Z,100.00
2023-05-04T00:50:40.928Z,100.00
2023-05-04T00:53:54.091Z,100.00
2023-05-04T00:57:06.580Z,100.00
2023-05-04T01:00:21.332Z,100.00
2023-05-04T01:03:35.260Z,100.00
2023-05-04T01:06:55.978Z,100.00
2023-05-04T01:10:14.574Z,100.00
2023-05-04T01:13:28.902Z,100.00
2023-05-04T01:16:41.135Z,100.00
2023-05-04T01:19:54.381Z,100.00
2023-05-04T01:23:07.540Z,100.00
2023-05-04T01:26:26.844Z,100.00
2023-05-04T01:29:46.116Z,100.00
2023-05-04T01:32:59.059Z,100.00
2023-05-04T01:36:12.482Z,100.00
2023-05-04T01:39:24.566Z,100.00
2023-05-04T01:42:36.972Z,100.00
2023-05-04T01:45:50.114Z,100.00
2023-05-04T01:49:02.543Z,100.00
2023-05-04T01:52:15.035Z,100.00
2023-05-04T01:55:27.444Z,100.00
2023-05-04T01:58:39.572Z,100.00
2023-05-04T02:01:51.773Z,100.00
2023-05-04T02:05:04.390Z,100.00
2023-05-04T02:08:17.193Z,100.00
2023-05-04T02:11:29.460Z,100.00
2023-05-04T02:14:41.736Z,100.00
2023-05-04T02:17:54.215Z,100.00
2023-05-04T02:21:06.941Z,100.00
2023-05-04T02:24:19.358Z,100.00
2023-05-04T02:27:31.733Z,100.00
2023-05-04T02:30:44.085Z,100.00
2023-05-04T02:33:58.838Z,100.00
2023-05-04T02:37:10.951Z,100.00
2023-05-04T02:40:23.634Z,100.00
2023-05-04T02:43:36.335Z,100.00
2023-05-04T02:46:49.205Z,100.00
2023-05-04T02:50:01.781Z,100.00
2023-05-04T02:53:14.058Z,100.00
2023-05-04T02:56:26.174Z,100.00
2023-05-04T02:59:38.138Z,100.00
2023-05-04T03:02:50.450Z,100.00
2023-05-04T03:06:02.677Z,100.00
2023-05-04T03:09:15.160Z,100.00
2023-05-04T03:12:28.620Z,100.00
2023-05-04T03:15:41.316Z,100.00
2023-05-04T03:18:54.033Z,100.00
2023-05-04T03:22:06.347Z,100.00
2023-05-04T03:25:18.836Z,100.00
2023-05-04T03:28:31.322Z,100.00
2023-05-04T03:31:43.518Z,100.00
2023-05-04T03:35:06.074Z,100.00
2023-05-04T03:38:18.252Z,100.00
2023-05-04T03:41:30.568Z,100.00
2023-05-04T03:44:42.757Z,100.00
2023-05-04T03:47:55.045Z,100.00
2023-05-04T03:51:08.114Z,100.00
2023-05-04T03:54:20.492Z,100.00
2023-05-04T03:57:32.697Z,100.00
2023-05-04T04:00:45.541Z,100.00
2023-05-04T04:03:58.500Z,100.00
2023-05-04T04:07:11.298Z,100.00
2023-05-04T04:14:05.401Z,100.00
2023-05-04T04:17:17.703Z,100.00
2023-05-04T04:20:29.944Z,100.00
2023-05-04T04:23:42.035Z,100.00
2023-05-04T04:26:54.101Z,100.00
2023-05-04T04:30:06.260Z,100.00
2023-05-04T04:33:19.665Z,100.00
2023-05-04T04:36:33.660Z,100.00
2023-05-04T04:39:45.705Z,100.00
2023-05-04T04:42:57.838Z,100.00
2023-05-04T04:46:11.015Z,100.00
2023-05-04T04:49:23.229Z,100.00
2023-05-04T04:56:18.787Z,100.00
2023-05-04T04:59:31.393Z,100.00
2023-05-04T05:02:44.049Z,100.00
2023-05-04T05:05:56.449Z,100.00
2023-05-04T05:16:14.427Z,100.00
2023-05-04T05:19:26.849Z,100.00
2023-05-04T05:22:38.883Z,100.00
2023-05-04T05:25:51.944Z,100.00
2023-05-04T05:29:04.053Z,100.00
2023-05-04T05:32:16.361Z,100.00
2023-05-04T05:35:28.405Z,100.00
2023-05-04T05:38:40.516Z,100.00
2023-05-04T05:41:53.240Z,100.00
2023-05-04T05:45:06.078Z,97.24
2023-05-04T05:48:18.258Z,93.04
2023-05-04T05:51:30.732Z,93.13
2023-05-04T05:54:43.304Z,92.24
2023-05-04T05:57:55.341Z,91.62
2023-05-04T06:01:08.226Z,90.05
2023-05-04T06:04:20.937Z,90.54
2023-05-04T06:07:33.205Z,94.10
2023-05-04T06:10:45.235Z,92.48
2023-05-04T06:13:58.018Z,90.49
2023-05-04T06:17:10.229Z,89.83
2023-05-04T06:20:23.463Z,88.24
2023-05-04T06:23:37.372Z,86.85
2023-05-04T06:26:49.463Z,86.22
2023-05-04T06:30:01.546Z,84.34
2023-05-04T06:33:13.713Z,81.89
2023-05-04T06:36:26.240Z,80.98
2023-05-04T06:39:38.649Z,77.63
2023-05-04T06:42:51.014Z,78.27
2023-05-04T06:46:07.165Z,73.25
2023-05-04T06:49:19.633Z,73.49
2023-05-04T06:52:33.278Z,69.27
2023-05-04T06:55:45.834Z,68.23
2023-05-04T06:58:58.267Z,65.51
2023-05-04T07:02:10.698Z,65.11
2023-05-04T07:05:23.363Z,68.14
2023-05-04T07:08:35.968Z,67.39
2023-05-04T07:11:48.809Z,63.97
2023-05-04T07:15:01.419Z,63.94
2023-05-04T07:18:14.145Z,65.52
2023-05-04T07:21:28.951Z,64.59
2023-05-04T07:24:40.797Z,63.80
2023-05-04T07:27:52.989Z,61.75
2023-05-04T07:31:05.334Z,65.81
2023-05-04T07:34:17.664Z,61.61
2023-05-04T07:37:29.818Z,64.31
2023-05-04T07:40:42.445Z,63.39
2023-05-04T07:43:55.050Z,62.22
2023-05-04T07:47:08.219Z,63.12
2023-05-04T07:50:21.622Z,63.63
2023-05-04T07:53:33.850Z,61.62
2023-05-04T07:56:46.077Z,63.92
2023-05-04T08:00:02.076Z,60.44
2023-05-04T08:03:16.981Z,60.81
2023-05-04T08:06:29.177Z,60.57
2023-05-04T08:09:39.873Z,62.56
2023-05-04T08:12:52.424Z,59.33
2023-05-04T08:16:05.021Z,59.32
2023-05-04T08:19:17.684Z,58.56
2023-05-04T08:22:30.202Z,59.08
2023-05-04T08:25:43.070Z,56.61
2023-05-04T08:28:55.268Z,57.65
2023-05-04T08:32:07.901Z,58.69
2023-05-04T08:35:21.331Z,58.68
2023-05-04T08:38:33.622Z,55.01
2023-05-04T08:41:48.376Z,55.21
2023-05-04T08:45:01.872Z,52.82
2023-05-04T08:48:14.969Z,53.61
2023-05-04T08:51:27.450Z,51.22
2023-05-04T08:54:40.421Z,50.96
2023-05-04T08:57:52.686Z,53.83
2023-05-04T09:01:07.246Z,48.11
2023-05-04T09:04:20.977Z,50.33
2023-05-04T09:07:33.235Z,48.08
2023-05-04T09:10:45.429Z,49.98
2023-05-04T09:13:58.095Z,50.77
2023-05-04T09:17:20.739Z,50.90
2023-05-04T09:20:33.021Z,51.84
2023-05-04T09:23:55.502Z,53.23
2023-05-04T09:27:18.737Z,52.33
2023-05-04T09:30:32.259Z,51.04
2023-05-04T09:33:45.041Z,48.95
2023-05-04T09:37:08.796Z,50.54
2023-05-04T09:40:23.333Z,49.15
2023-05-04T09:43:45.253Z,48.43
2023-05-04T09:47:05.159Z,51.34
2023-05-04T09:50:25.674Z,51.67
2023-05-04T09:53:39.128Z,51.40
2023-05-04T09:56:55.690Z,48.60
2023-05-04T10:00:09.870Z,49.98
2023-05-04T10:03:22.850Z,48.79
2023-05-04T10:06:36.633Z,47.64
2023-05-04T10:09:49.312Z,49.53
2023-05-04T10:13:02.189Z,50.48
2023-05-04T10:16:28.684Z,53.54
2023-05-04T10:20:12.022Z,56.15
2023-05-04T10:23:44.429Z,53.15
2023-05-04T10:27:12.139Z,51.48
2023-05-04T10:30:25.584Z,52.89
2023-05-04T10:33:48.069Z,51.59
2023-05-04T10:37:01.091Z,54.77
2023-05-04T10:40:15.555Z,51.48
2023-05-04T10:43:32.827Z,50.69
2023-05-04T10:46:45.079Z,48.71
2023-05-04T10:50:08.311Z,52.72
2023-05-04T10:53:23.653Z,53.24
2023-05-04T10:56:36.782Z,55.05
2023-05-04T11:00:01.812Z,52.78
2023-05-04T11:03:14.465Z,52.99
2023-05-04T11:06:29.127Z,51.56
2023-05-04T11:09:45.763Z,52.64
2023-05-04T11:13:02.211Z,51.16
2023-05-04T11:16:16.980Z,52.90
2023-05-04T11:19:29.195Z,49.84
2023-05-04T11:22:42.972Z,48.51
2023-05-04T11:25:55.195Z,52.41
2023-05-04T11:29:17.933Z,52.87
2023-05-04T11:32:43.116Z,55.55
2023-05-04T11:35:55.746Z,54.79
2023-05-04T11:39:09.406Z,52.52
2023-05-04T11:42:21.492Z,54.15
2023-05-04T11:45:36.777Z,48.65
2023-05-04T11:48:49.014Z,50.76
2023-05-04T11:52:11.151Z,51.98
2023-05-04T11:55:42.044Z,51.91
2023-05-04T11:58:54.382Z,52.91
2023-05-04T12:02:07.404Z,49.46
2023-05-04T12:05:21.981Z,52.39
2023-05-04T12:08:36.246Z,53.01
2023-05-04T12:11:50.376Z,49.86
2023-05-04T12:15:03.070Z,49.66
2023-05-04T12:18:28.491Z,49.95
2023-05-04T12:21:41.354Z,48.22
2023-05-04T12:24:53.943Z,49.10
2023-05-04T12:28:06.351Z,51.11
2023-05-04T12:31:18.700Z,55.00
2023-05-04T12:34:31.297Z,55.87
2023-05-04T12:37:43.686Z,50.80
2023-05-04T12:40:56.282Z,49.67
2023-05-04T12:44:09.061Z,50.78
2023-05-04T12:47:23.427Z,49.53
2023-05-04T12:50:35.697Z,50.76
2023-05-04T12:53:47.891Z,53.83
2023-05-04T12:56:59.896Z,49.21
2023-05-04T13:00:15.289Z,53.44
2023-05-04T13:03:27.417Z,47.80
2023-05-04T13:06:39.608Z,50.39
2023-05-04T13:09:51.814Z,50.47
2023-05-04T13:13:04.976Z,46.04
2023-05-04T13:16:17.418Z,47.86
2023-05-04T13:19:29.650Z,47.37
2023-05-04T13:22:41.873Z,46.58
2023-05-04T13:25:55.266Z,47.66
2023-05-04T13:29:07.700Z,46.83
2023-05-04T13:32:19.945Z,46.00
2023-05-04T13:35:32.429Z,46.09
2023-05-04T13:38:44.428Z,47.13
2023-05-04T13:41:56.666Z,44.78
2023-05-04T13:45:09.704Z,46.45
2023-05-04T13:48:21.996Z,45.13
2023-05-04T13:51:35.109Z,42.52
2023-05-04T13:54:47.106Z,44.37
2023-05-04T13:57:59.201Z,43.48
2023-05-04T14:01:11.380Z,45.19
2023-05-04T14:04:23.426Z,45.09
2023-05-04T14:07:35.595Z,45.34
2023-05-04T14:10:48.040Z,43.08
2023-05-04T14:14:00.342Z,43.21
2023-05-04T14:17:12.339Z,45.90
2023-05-04T14:20:24.775Z,43.53
2023-05-04T14:23:37.721Z,43.39
2023-05-04T14:26:50.195Z,45.03
2023-05-04T14:48:46.337Z,44.94
2023-05-04T14:51:58.818Z,48.23
2023-05-04T14:55:22.939Z,45.98
2023-05-04T14:58:35.099Z,46.02
2023-05-04T15:05:27.950Z,46.50
2023-05-04T15:08:42.403Z,49.07
2023-05-04T15:15:35.334Z,47.73
2023-05-04T15:18:47.514Z,50.27
2023-05-04T15:22:00.921Z,51.89
2023-05-04T15:25:14.453Z,50.08
2023-05-04T15:28:26.656Z,55.84
2023-05-04T15:31:38.836Z,54.46
2023-05-04T15:35:01.206Z,52.79
2023-05-04T15:38:06.050Z,53.25
2023-05-04T15:41:18.117Z,52.52
2023-05-04T15:44:30.560Z,57.89
2023-05-04T15:47:43.119Z,58.18
2023-05-04T15:50:55.488Z,54.82
2023-05-04T15:54:08.819Z,53.57
2023-05-04T15:57:21.211Z,52.08
2023-05-04T16:00:34.464Z,62.37
2023-05-04T16:03:47.344Z,59.43
2023-05-04T16:06:59.389Z,58.40
2023-05-04T16:10:14.094Z,53.88
2023-05-04T16:28:41.718Z,56.26
2023-05-04T16:44:01.331Z,56.24
2023-05-04T16:47:13.501Z,61.74
2023-05-04T17:46:25.234Z,63.95
2023-05-04T17:49:37.575Z,67.09
2023-05-04T17:52:49.734Z,66.55
2023-05-04T17:56:02.442Z,67.81
2023-05-04T17:59:14.658Z,69.91
2023-05-04T18:02:26.850Z,72.30
2023-05-04T18:05:39.224Z,70.33
2023-05-04T18:08:51.802Z,70.70
2023-05-04T18:12:04.308Z,73.87
2023-05-04T18:15:18.693Z,75.06
2023-05-04T18:18:31.346Z,75.47
2023-05-04T18:21:44.566Z,76.15
2023-05-04T18:24:56.669Z,73.04
2023-05-04T18:28:09.050Z,74.74
2023-05-04T18:31:22.051Z,71.09
2023-05-04T18:34:34.309Z,74.38
2023-05-04T18:37:46.714Z,75.56
2023-05-04T18:41:01.521Z,74.95
2023-05-04T18:44:13.818Z,76.45
2023-05-04T18:47:26.409Z,75.32
2023-05-04T18:50:38.616Z,76.23
2023-05-04T18:53:51.125Z,77.63
2023-05-04T18:57:03.756Z,78.40
2023-05-04T19:00:20.351Z,77.89
2023-05-04T19:03:33.154Z,79.04
2023-05-04T19:06:54.012Z,81.00
2023-05-04T19:13:07.182Z,81.81
2023-05-04T19:16:22.996Z,81.99
2023-05-04T19:25:35.716Z,83.44
2023-05-04T19:28:48.212Z,82.44
2023-05-04T19:32:05.670Z,81.56
2023-05-04T19:35:16.216Z,82.02
2023-05-04T19:38:28.532Z,82.69
2023-05-04T19:41:41.767Z,84.39
2023-05-04T19:44:54.000Z,83.00
2023-05-04T19:48:06.396Z,84.14
2023-05-04T19:51:18.588Z,84.16
2023-05-04T19:54:31.070Z,84.70
2023-05-04T19:57:43.871Z,85.28
2023-05-04T20:00:56.290Z,84.10
2023-05-04T20:04:08.577Z,84.87
2023-05-04T20:10:20.809Z,87.17
2023-05-04T20:13:33.059Z,87.64
2023-05-04T20:16:45.231Z,88.44
2023-05-04T20:19:57.517Z,91.88
2023-05-04T20:23:09.755Z,92.03
2023-05-04T20:26:23.631Z,89.85
2023-05-04T20:29:36.430Z,90.47
2023-05-04T20:32:48.682Z,91.86
2023-05-04T20:36:01.763Z,91.82
2023-05-04T20:39:13.994Z,94.18
2023-05-04T20:42:26.174Z,96.17
2023-05-04T20:45:38.807Z,99.21
2023-05-04T20:48:50.861Z,98.54
2023-05-04T20:58:03.642Z,97.53
2023-05-04T21:01:15.896Z,99.27
2023-05-04T21:04:30.309Z,100.00
2023-05-04T21:07:42.514Z,98.47
2023-05-04T21:10:54.509Z,98.38
2023-05-04T21:14:06.528Z,97.94
2023-05-04T21:17:18.494Z,97.16
2023-05-04T21:20:30.501Z,99.95
2023-05-04T21:23:42.494Z,99.50
2023-05-04T21:26:54.608Z,99.68
2023-05-04T21:30:08.227Z,100.00
2023-05-04T21:33:20.822Z,100.00
2023-05-04T21:36:32.983Z,100.00
2023-05-04T21:39:46.621Z,100.00
2023-05-04T21:42:58.864Z,100.00
2023-05-04T21:46:12.981Z,100.00
2023-05-04T21:49:25.109Z,100.00
2023-05-04T21:52:37.234Z,100.00
2023-05-04T21:55:49.237Z,100.00
2023-05-04T21:59:01.224Z,100.00
2023-05-04T22:02:13.592Z,100.00
2023-05-04T22:05:26.351Z,100.00
2023-05-04T22:08:38.556Z,100.00
2023-05-04T22:11:51.959Z,100.00
2023-05-04T22:15:03.928Z,100.00
2023-05-04T22:18:16.196Z,100.00
2023-05-04T22:21:28.577Z,100.00
2023-05-04T22:24:40.568Z,100.00
2023-05-04T22:27:52.517Z,100.00
2023-05-04T22:31:04.497Z,100.00
2023-05-04T22:34:16.713Z,100.00
2023-05-04T22:37:28.753Z,100.00
2023-05-04T22:40:42.937Z,100.00
2023-05-04T22:43:54.936Z,100.00
2023-05-04T22:47:06.891Z,100.00
2023-05-04T22:50:19.851Z,100.00
2023-05-04T22:56:32.941Z,100.00
2023-05-04T23:11:58.682Z,100.00
2023-05-04T23:18:11.037Z,100.00
2023-05-04T23:21:23.058Z,100.00
